createdAt,value
2019-01-21T00:01:52.691Z,2.80
2019-01-21T00:04:21.979Z,2.80
2019-01-21T00:06:50.563Z,2.90
2019-01-21T00:09:19.463Z,2.90
2019-01-21T00:11:48.066Z,2.90
2019-01-21T00:14:16.876Z,2.90
2019-01-21T00:16:45.519Z,2.90
2019-01-21T00:19:13.633Z,2.80
2019-01-21T00:21:42.780Z,2.70
2019-01-21T00:24:11.183Z,2.60
2019-01-21T00:26:39.331Z,2.70
2019-01-21T00:29:08.836Z,2.80
2019-01-21T00:31:37.332Z,2.70
2019-01-21T00:34:05.690Z,2.70
2019-01-21T00:36:35.348Z,2.70
2019-01-21T00:39:05.859Z,2.80
2019-01-21T00:41:34.323Z,2.60
2019-01-21T00:44:02.803Z,2.70
2019-01-21T00:46:31.187Z,2.50
2019-01-21T00:48:59.256Z,2.60
2019-01-21T00:51:27.945Z,2.60
2019-01-21T00:53:56.210Z,2.60
2019-01-21T00:56:24.591Z,2.50
2019-01-21T00:58:53.203Z,2.60
2019-01-21T01:01:21.519Z,2.40
2019-01-21T01:03:49.787Z,2.40
2019-01-21T01:06:18.143Z,2.40
2019-01-21T01:08:46.595Z,2.60
2019-01-21T01:11:15.387Z,2.60
2019-01-21T01:13:43.687Z,2.50
2019-01-21T01:16:12.150Z,2.40
2019-01-21T01:18:40.615Z,2.50
2019-01-21T01:21:09.463Z,2.60
2019-01-21T01:23:37.816Z,2.60
2019-01-21T01:26:05.644Z,2.60
2019-01-21T01:28:34.219Z,2.60
2019-01-21T01:31:03.532Z,2.70
2019-01-21T01:33:31.914Z,2.70
2019-01-21T01:36:01.340Z,2.60
2019-01-21T01:38:29.383Z,2.60
2019-01-21T01:40:57.863Z,2.70
2019-01-21T01:43:26.755Z,2.50
2019-01-21T01:45:55.347Z,2.50
2019-01-21T01:48:24.858Z,2.40
2019-01-21T01:50:53.641Z,2.30
2019-01-21T01:53:22.008Z,2.40
2019-01-21T01:55:50.491Z,2.60
2019-01-21T01:58:18.887Z,2.40
2019-01-21T02:00:47.860Z,2.20
2019-01-21T02:03:17.987Z,2.40
2019-01-21T02:05:46.658Z,2.20
2019-01-21T02:08:15.367Z,2.20
2019-01-21T02:10:44.355Z,2.30
2019-01-21T02:13:13.025Z,2.30
2019-01-21T02:15:42.127Z,2.20
2019-01-21T02:18:11.010Z,2.30
2019-01-21T02:20:39.408Z,2.30
2019-01-21T02:23:11.078Z,2.30
2019-01-21T02:26:01.153Z,2.30
2019-01-21T02:28:45.331Z,2.10
2019-01-21T02:32:07.653Z,2.10
2019-01-21T02:35:04.316Z,2.20
2019-01-21T02:38:10.436Z,2.20
2019-01-21T02:41:38.520Z,2.10
2019-01-21T02:44:27.480Z,2.00
2019-01-21T02:47:33.277Z,2.00
2019-01-21T02:50:46.171Z,2.00
2019-01-21T02:53:55.447Z,2.00
2019-01-21T02:56:58.695Z,2.00
2019-01-21T03:00:05.073Z,2.00
2019-01-21T03:03:09.887Z,2.00
2019-01-21T03:06:09.318Z,1.90
2019-01-21T03:09:14.760Z,1.70
2019-01-21T03:12:36.789Z,1.80
2019-01-21T03:15:14.899Z,2.00
2019-01-21T03:18:27.923Z,2.10
2019-01-21T03:21:31.013Z,2.00
2019-01-21T03:24:37.691Z,2.00
2019-01-21T03:27:38.319Z,2.10
2019-01-21T03:30:53.799Z,2.00
2019-01-21T03:34:03.251Z,1.90
2019-01-21T03:36:53.145Z,1.80
2019-01-21T03:39:52.599Z,2.00
2019-01-21T03:42:47.231Z,1.80
2019-01-21T03:45:34.668Z,1.90
2019-01-21T03:48:18.456Z,1.80
2019-01-21T03:51:28.777Z,1.80
2019-01-21T03:54:10.552Z,2.10
2019-01-21T03:57:14.148Z,2.00
2019-01-21T04:00:25.566Z,1.90
2019-01-21T04:03:08.056Z,2.00
2019-01-21T04:06:02.335Z,2.00
2019-01-21T04:09:11.267Z,1.80
2019-01-21T04:12:06.783Z,1.80
2019-01-21T04:15:25.761Z,1.70
2019-01-21T04:18:35.606Z,1.70
2019-01-21T04:21:32.556Z,1.80
2019-01-21T04:24:33.715Z,1.80
2019-01-21T04:27:27.979Z,1.70
2019-01-21T04:30:11.316Z,1.90
2019-01-21T04:33:07.639Z,1.80
2019-01-21T04:36:22.507Z,1.80
2019-01-21T04:38:57.509Z,1.70
2019-01-21T04:41:45.899Z,1.80
2019-01-21T04:44:43.489Z,1.60
2019-01-21T04:47:46.549Z,1.70
2019-01-21T04:51:03.069Z,1.80
2019-01-21T04:54:13.328Z,1.90
2019-01-21T04:57:15.804Z,1.80
2019-01-21T05:00:25.148Z,1.70
2019-01-21T05:03:41.143Z,1.80
2019-01-21T05:06:45.975Z,1.70
2019-01-21T05:10:10.944Z,1.90
2019-01-21T05:12:56.972Z,2.00
2019-01-21T05:16:06.211Z,1.80
2019-01-21T05:19:21.693Z,1.90
2019-01-21T05:22:28.056Z,1.80
2019-01-21T05:25:37.999Z,1.70
2019-01-21T05:28:27.585Z,1.20
2019-01-21T05:31:26.987Z,1.70
2019-01-21T05:34:56.404Z,1.70
2019-01-21T05:37:54.363Z,1.70
2019-01-21T05:41:03.431Z,1.80
2019-01-21T05:44:09.777Z,1.60
2019-01-21T05:47:33.556Z,1.60
2019-01-21T05:50:27.219Z,1.70
2019-01-21T05:53:23.143Z,1.80
2019-01-21T05:56:32.785Z,1.30
2019-01-21T05:59:32.630Z,1.00
2019-01-21T06:02:28.019Z,0.90
2019-01-21T06:05:40.437Z,1.20
2019-01-21T06:08:53.403Z,1.50
2019-01-21T06:11:28.652Z,1.70
2019-01-21T06:14:12.289Z,1.60
2019-01-21T06:17:17.891Z,1.50
2019-01-21T06:20:10.480Z,1.60
2019-01-21T06:23:08.813Z,1.50
2019-01-21T06:26:12.728Z,1.50
2019-01-21T06:29:28.307Z,1.60
2019-01-21T06:32:24.107Z,1.60
2019-01-21T06:36:02.034Z,1.40
2019-01-21T06:39:11.574Z,1.50
2019-01-21T06:42:01.237Z,1.40
2019-01-21T06:44:51.031Z,1.50
2019-01-21T06:48:01.311Z,1.70
2019-01-21T06:51:11.877Z,1.50
2019-01-21T06:53:58.307Z,1.50
2019-01-21T06:56:58.876Z,1.70
2019-01-21T06:59:58.019Z,1.60
2019-01-21T07:02:56.324Z,1.60
2019-01-21T07:06:13.816Z,1.70
2019-01-21T07:09:19.975Z,1.80
2019-01-21T07:11:57.064Z,1.80
2019-01-21T07:14:58.207Z,1.90
2019-01-21T07:17:38.355Z,1.80
2019-01-21T07:20:35.524Z,1.80
2019-01-21T07:23:35.837Z,1.60
2019-01-21T07:26:36.895Z,1.70
2019-01-21T07:29:34.704Z,2.00
2019-01-21T07:32:29.034Z,2.00
2019-01-21T07:35:34.377Z,2.00
2019-01-21T07:38:18.627Z,1.80
2019-01-21T07:41:16.006Z,1.90
2019-01-21T07:44:30.676Z,2.10
2019-01-21T07:47:38.460Z,2.20
2019-01-21T07:50:31.022Z,2.10
2019-01-21T07:53:49.052Z,2.10
2019-01-21T07:56:49.678Z,2.30
2019-01-21T07:59:58.760Z,2.20
2019-01-21T08:02:55.059Z,2.50
2019-01-21T08:06:03.689Z,2.50
2019-01-21T08:09:05.439Z,2.50
2019-01-21T08:11:59.663Z,2.60
2019-01-21T08:15:14.699Z,2.60
2019-01-21T08:18:34.286Z,2.60
2019-01-21T08:21:39.914Z,2.60
2019-01-21T08:24:34.427Z,2.60
2019-01-21T08:27:15.191Z,2.70
2019-01-21T08:29:56.149Z,2.80
2019-01-21T08:33:01.564Z,2.80
2019-01-21T08:35:54.255Z,2.90
2019-01-21T08:38:36.279Z,2.90
2019-01-21T08:41:32.598Z,3.00
2019-01-21T08:44:39.161Z,3.10
2019-01-21T08:47:33.447Z,3.10
2019-01-21T08:50:39.103Z,3.10
2019-01-21T08:53:32.475Z,3.20
2019-01-21T08:56:41.595Z,3.30
2019-01-21T08:59:43.363Z,3.30
2019-01-21T09:02:39.899Z,3.20
2019-01-21T09:05:48.707Z,3.30
2019-01-21T09:08:53.671Z,3.30
2019-01-21T09:12:15.359Z,3.40
2019-01-21T09:15:13.568Z,3.50
2019-01-21T09:18:10.324Z,3.50
2019-01-21T09:20:54.446Z,3.60
2019-01-21T09:23:35.124Z,3.60
2019-01-21T09:26:13.446Z,3.70
2019-01-21T09:29:15.109Z,3.80
2019-01-21T09:32:18.724Z,3.90
2019-01-21T09:35:10.635Z,3.90
2019-01-21T09:38:06.259Z,3.90
2019-01-21T09:40:57.836Z,3.90
2019-01-21T09:43:50.006Z,4.00
2019-01-21T09:46:46.407Z,4.00
2019-01-21T09:49:13.327Z,4.00
2019-01-21T09:51:49.673Z,4.10
2019-01-21T09:54:19.843Z,4.10
2019-01-21T09:56:48.819Z,4.10
2019-01-21T09:59:18.132Z,4.20
2019-01-21T10:01:47.316Z,4.30
2019-01-21T10:04:22.794Z,4.30
2019-01-21T10:07:16.569Z,4.20
2019-01-21T10:10:16.404Z,4.30
2019-01-21T10:13:31.683Z,4.40
2019-01-21T10:16:12.363Z,4.50
2019-01-21T10:18:53.599Z,4.50
2019-01-21T10:21:57.907Z,4.50
2019-01-21T10:25:11.575Z,4.60
2019-01-21T10:28:10.255Z,4.70
2019-01-21T10:31:12.579Z,4.80
2019-01-21T10:34:15.508Z,4.90
2019-01-21T10:37:50.196Z,4.90
2019-01-21T10:40:50.677Z,4.90
2019-01-21T10:44:15.503Z,5.00
2019-01-21T10:47:19.858Z,5.00
2019-01-21T10:50:26.919Z,5.00
2019-01-21T10:53:16.031Z,5.10
2019-01-21T10:56:18.715Z,5.10
2019-01-21T10:59:39.656Z,5.10
2019-01-21T11:02:26.391Z,5.10
2019-01-21T11:05:22.088Z,5.10
2019-01-21T11:08:18.394Z,5.10
2019-01-21T11:11:27.758Z,5.10
2019-01-21T11:14:46.740Z,5.10
2019-01-21T11:17:54.880Z,5.10
2019-01-21T11:21:09.141Z,5.20
2019-01-21T11:24:02.058Z,5.20
2019-01-21T11:27:15.693Z,5.20
2019-01-21T11:30:35.061Z,5.20
2019-01-21T11:34:03.355Z,5.20
2019-01-21T11:37:13.603Z,5.20
2019-01-21T11:40:15.129Z,5.20
2019-01-21T11:43:11.887Z,5.20
2019-01-21T11:46:06.712Z,5.20
2019-01-21T11:49:02.347Z,5.20
2019-01-21T11:52:11.767Z,5.20
2019-01-21T11:55:03.764Z,5.10
2019-01-21T11:58:13.523Z,5.20
2019-01-21T12:00:54.291Z,5.10
2019-01-21T12:03:32.509Z,5.10
2019-01-21T12:06:17.924Z,5.10
2019-01-21T12:09:13.342Z,5.10
2019-01-21T12:11:46.234Z,5.20
2019-01-21T12:14:28.475Z,5.20
2019-01-21T12:17:27.164Z,5.30
2019-01-21T12:20:08.777Z,5.20
2019-01-21T12:23:31.295Z,5.20
2019-01-21T12:26:40.716Z,5.20
2019-01-21T12:29:55.256Z,5.20
2019-01-21T12:32:39.483Z,5.10
2019-01-21T12:35:34.863Z,5.10
2019-01-21T12:38:35.392Z,5.00
2019-01-21T12:41:34.525Z,5.00
2019-01-21T12:45:11.215Z,5.00
2019-01-21T12:47:54.392Z,5.10
2019-01-21T12:51:01.147Z,5.20
2019-01-21T12:53:54.383Z,5.10
2019-01-21T12:57:10.227Z,5.10
2019-01-21T13:00:44.371Z,5.00
2019-01-21T13:03:42.283Z,5.00
2019-01-21T13:06:19.393Z,5.00
2019-01-21T13:09:26.847Z,5.10
2019-01-21T13:12:12.465Z,5.00
2019-01-21T13:14:56.856Z,5.00
2019-01-21T13:17:53.628Z,5.00
2019-01-21T13:20:43.852Z,5.00
2019-01-21T13:23:32.507Z,5.00
2019-01-21T13:26:42.491Z,5.00
2019-01-21T13:29:44.487Z,5.00
2019-01-21T13:33:01.528Z,4.90
2019-01-21T13:35:54.476Z,4.90
2019-01-21T13:39:06.043Z,5.00
2019-01-21T13:42:04.335Z,5.00
2019-01-21T13:45:17.099Z,5.00
2019-01-21T13:48:01.440Z,5.00
2019-01-21T13:50:41.079Z,5.00
2019-01-21T13:53:46.407Z,5.00
2019-01-21T13:56:49.375Z,5.00
2019-01-21T13:59:58.004Z,5.00
2019-01-21T14:02:37.644Z,4.90
2019-01-21T14:06:00.599Z,4.90
2019-01-21T14:09:03.747Z,4.90
2019-01-21T14:11:53.908Z,4.90
2019-01-21T14:14:54.704Z,5.10
2019-01-21T14:18:00.147Z,5.00
2019-01-21T14:21:05.611Z,5.00
2019-01-21T14:23:47.095Z,5.00
2019-01-21T14:26:42.806Z,5.00
2019-01-21T14:29:23.212Z,5.00
2019-01-21T14:32:42.935Z,4.90
2019-01-21T14:35:47.412Z,4.90
2019-01-21T14:38:55.109Z,4.80
2019-01-21T14:42:01.152Z,4.80
2019-01-21T14:45:19.607Z,4.70
2019-01-21T14:48:27.952Z,4.70
2019-01-21T14:51:25.828Z,4.80
2019-01-21T14:54:41.100Z,4.70
2019-01-21T14:57:48.148Z,4.70
2019-01-21T15:00:58.379Z,4.70
2019-01-21T15:03:58.678Z,4.70
2019-01-21T15:07:03.082Z,4.60
2019-01-21T15:10:10.383Z,4.60
2019-01-21T15:13:10.183Z,4.70
2019-01-21T15:16:24.720Z,4.60
2019-01-21T15:19:43.738Z,4.60
2019-01-21T15:22:18.250Z,4.50
2019-01-21T15:25:22.425Z,4.50
2019-01-21T15:28:40.031Z,4.50
2019-01-21T15:31:47.677Z,4.50
2019-01-21T15:34:54.529Z,4.40
2019-01-21T15:37:53.941Z,4.40
2019-01-21T15:41:13.428Z,4.40
2019-01-21T15:44:14.599Z,4.30
2019-01-21T15:47:05.769Z,4.40
2019-01-21T15:49:44.135Z,4.30
2019-01-21T15:52:40.407Z,4.30
2019-01-21T15:55:49.153Z,4.30
2019-01-21T15:58:41.083Z,4.30
2019-01-21T16:01:55.692Z,4.20
2019-01-21T16:05:08.956Z,4.20
2019-01-21T16:07:49.655Z,4.20
2019-01-21T16:11:14.223Z,4.20
2019-01-21T16:13:51.991Z,4.20
2019-01-21T16:16:57.496Z,4.10
2019-01-21T16:19:41.993Z,4.10
2019-01-21T16:22:48.248Z,4.20
2019-01-21T16:25:46.585Z,4.10
2019-01-21T16:28:40.827Z,4.20
2019-01-21T16:31:30.623Z,4.10
2019-01-21T16:34:39.407Z,4.00
2019-01-21T16:38:02.212Z,4.00
2019-01-21T16:40:41.635Z,3.90
2019-01-21T16:43:09.759Z,4.00
2019-01-21T16:45:38.407Z,4.00
2019-01-21T16:48:08.611Z,3.90
2019-01-21T16:50:36.808Z,3.90
2019-01-21T16:53:04.988Z,4.00
2019-01-21T16:55:33.409Z,4.00
2019-01-21T16:58:02.100Z,4.00
2019-01-21T17:00:31.499Z,3.90
2019-01-21T17:02:59.535Z,3.90
2019-01-21T17:05:28.178Z,3.90
2019-01-21T17:07:56.171Z,3.80
2019-01-21T17:10:25.117Z,3.80
2019-01-21T17:12:53.695Z,3.80
2019-01-21T17:15:22.178Z,3.70
2019-01-21T17:17:52.506Z,3.70
2019-01-21T17:20:20.876Z,3.70
2019-01-21T17:22:49.575Z,3.80
2019-01-21T17:25:18.863Z,3.60
2019-01-21T17:27:47.359Z,3.70
2019-01-21T17:30:17.611Z,3.70
2019-01-21T17:32:45.964Z,3.60
2019-01-21T17:35:14.643Z,3.60
2019-01-21T17:37:43.032Z,3.50
2019-01-21T17:40:12.867Z,3.50
2019-01-21T17:42:41.467Z,3.50
2019-01-21T17:45:13.140Z,3.50
2019-01-21T17:47:43.489Z,3.50
2019-01-21T17:50:13.634Z,3.50
2019-01-21T17:52:42.985Z,3.50
2019-01-21T17:55:13.285Z,3.10
2019-01-21T17:57:41.608Z,3.50
2019-01-21T18:00:16.243Z,3.50
2019-01-21T18:02:45.377Z,3.40
2019-01-21T18:05:13.608Z,3.50
2019-01-21T18:07:42.028Z,3.40
2019-01-21T18:10:13.435Z,3.30
2019-01-21T18:12:40.684Z,3.40
2019-01-21T18:15:12.101Z,3.40
2019-01-21T18:17:41.934Z,3.40
2019-01-21T18:20:16.623Z,3.30
2019-01-21T18:23:24.187Z,3.20
2019-01-21T18:26:06.924Z,3.30
2019-01-21T18:28:44.116Z,3.30
2019-01-21T18:34:40.616Z,2.80
2019-01-21T18:37:28.605Z,2.60
2019-01-21T18:39:57.111Z,2.50
2019-01-21T18:42:25.716Z,2.50
2019-01-21T18:44:55.445Z,2.30
2019-01-21T18:47:24.146Z,2.70
2019-01-21T18:49:54.183Z,3.00
2019-01-21T18:52:22.389Z,3.10
2019-01-21T18:54:50.366Z,3.10
2019-01-21T18:57:18.776Z,3.10
2019-01-21T18:59:47.688Z,3.20
2019-01-21T19:02:15.787Z,3.20
2019-01-21T19:04:44.159Z,3.10
2019-01-21T19:07:12.387Z,3.00
2019-01-21T19:09:40.460Z,3.10
2019-01-21T19:12:08.679Z,3.10
2019-01-21T19:14:36.835Z,3.20
2019-01-21T19:17:05.878Z,3.10
2019-01-21T19:19:33.938Z,3.10
2019-01-21T19:22:01.743Z,3.00
2019-01-21T19:24:30.312Z,3.10
2019-01-21T19:26:59.040Z,3.10
2019-01-21T19:29:27.325Z,3.10
2019-01-21T19:31:56.775Z,3.00
2019-01-21T19:34:25.138Z,3.00
2019-01-21T19:36:55.833Z,3.00
2019-01-21T19:39:24.230Z,3.00
2019-01-21T19:41:52.194Z,2.90
2019-01-21T19:44:20.869Z,2.90
2019-01-21T19:46:51.194Z,2.90
2019-01-21T19:49:19.393Z,2.90
2019-01-21T19:51:47.763Z,2.90
2019-01-21T19:54:16.007Z,2.90
2019-01-21T19:56:44.208Z,2.90
2019-01-21T19:59:13.366Z,2.80
2019-01-21T20:01:41.836Z,2.80
2019-01-21T20:04:10.644Z,2.80
2019-01-21T20:06:39.287Z,2.70
2019-01-21T20:09:08.190Z,2.70
2019-01-21T20:11:36.502Z,2.80
2019-01-21T20:14:05.987Z,2.60
2019-01-21T20:16:36.223Z,2.70
2019-01-21T20:19:05.072Z,2.60
2019-01-21T20:21:33.792Z,2.60
2019-01-21T20:24:01.771Z,2.60
2019-01-21T20:26:30.106Z,2.80
2019-01-21T20:28:59.005Z,2.70
2019-01-21T20:31:27.087Z,2.60
2019-01-21T20:33:55.305Z,2.70
2019-01-21T20:36:23.311Z,2.50
2019-01-21T20:38:51.368Z,2.50
2019-01-21T20:41:19.612Z,2.50
2019-01-21T20:43:47.742Z,2.50
2019-01-21T20:46:16.792Z,2.30
2019-01-21T20:48:45.033Z,2.00
2019-01-21T20:51:13.622Z,2.20
2019-01-21T20:53:41.603Z,2.30
2019-01-21T20:56:09.903Z,2.30
2019-01-21T20:58:43.133Z,2.30
2019-01-21T21:01:11.027Z,2.30
2019-01-21T21:03:40.984Z,1.90
2019-01-21T21:06:09.611Z,1.70
2019-01-21T21:08:38.507Z,1.80
2019-01-21T21:11:07.339Z,2.00
2019-01-21T21:13:35.881Z,2.20
2019-01-21T21:16:04.312Z,2.20
2019-01-21T21:18:32.997Z,2.00
2019-01-21T21:21:01.558Z,1.90
2019-01-21T21:23:29.603Z,2.10
2019-01-21T21:25:58.414Z,2.10
2019-01-21T21:28:29.805Z,2.20
2019-01-21T21:30:57.708Z,2.30
2019-01-21T21:33:26.675Z,2.30
2019-01-21T21:35:54.960Z,2.20
2019-01-21T21:38:23.521Z,2.20
2019-01-21T21:40:52.247Z,2.20
2019-01-21T21:43:20.038Z,2.10
2019-01-21T21:45:47.722Z,2.20
2019-01-21T21:48:15.899Z,2.20
2019-01-21T21:50:43.811Z,2.20
2019-01-21T21:53:12.424Z,2.20
2019-01-21T21:55:40.406Z,2.10
2019-01-21T21:58:09.661Z,2.10
2019-01-21T22:00:38.087Z,2.20
2019-01-21T22:03:08.602Z,2.20
2019-01-21T22:05:36.983Z,2.10
2019-01-21T22:08:05.449Z,2.10
2019-01-21T22:10:33.839Z,2.10
2019-01-21T22:13:03.459Z,2.20
2019-01-21T22:15:42.172Z,2.20
2019-01-21T22:18:11.052Z,2.20
2019-01-21T22:20:39.667Z,2.30
2019-01-21T22:23:09.455Z,2.20
2019-01-21T22:25:37.583Z,2.20
2019-01-21T22:28:05.605Z,2.00
2019-01-21T22:30:34.603Z,1.80
2019-01-21T22:33:02.732Z,1.90
2019-01-21T22:35:31.593Z,1.90
2019-01-21T22:38:00.126Z,2.00
2019-01-21T22:40:30.128Z,2.00
2019-01-21T22:42:58.763Z,1.80
2019-01-21T22:45:27.741Z,1.50
2019-01-21T22:47:56.523Z,1.20
2019-01-21T22:50:25.419Z,1.40
2019-01-21T22:52:54.228Z,1.70
2019-01-21T22:55:22.592Z,1.90
2019-01-21T22:57:50.558Z,2.00
2019-01-21T23:00:49.687Z,2.00
2019-01-21T23:03:18.535Z,2.00
2019-01-21T23:05:47.121Z,2.00
2019-01-21T23:08:16.130Z,2.00
2019-01-21T23:10:45.320Z,1.90
2019-01-21T23:13:14.978Z,1.90
2019-01-21T23:15:42.898Z,1.90
2019-01-21T23:18:11.261Z,1.70
2019-01-21T23:20:39.440Z,1.80
2019-01-21T23:23:08.535Z,1.80
2019-01-21T23:25:37.737Z,1.70
2019-01-21T23:28:06.530Z,1.80
2019-01-21T23:30:34.967Z,1.70
2019-01-21T23:33:03.212Z,1.80
2019-01-21T23:35:32.190Z,1.80
2019-01-21T23:38:01.067Z,1.80
2019-01-21T23:40:29.455Z,1.80
2019-01-21T23:42:58.025Z,1.80
2019-01-21T23:45:26.103Z,1.80
2019-01-21T23:47:54.279Z,1.90
2019-01-21T23:50:24.095Z,1.70
2019-01-21T23:52:56.154Z,1.90
2019-01-21T23:55:24.835Z,1.80
2019-01-21T23:57:53.423Z,1.80
